sensor_id;sensor_type;location;lat;lon;timestamp;temperature;humidity
11925;DHT22;6022;48.768;18.608;2023-07-28T00:02:15;16.10;99.90
11925;DHT22;6022;48.768;18.608;2023-07-28T00:04:42;16.10;99.90
11925;DHT22;6022;48.768;18.608;2023-07-28T00:07:09;15.90;99.90
11925;DHT22;6022;48.768;18.608;2023-07-28T00:09:36;15.80;99.90
11925;DHT22;6022;48.768;18.608;2023-07-28T00:12:04;15.70;99.90
11925;DHT22;6022;48.768;18.608;2023-07-28T00:14:31;15.70;99.90
11925;DHT22;6022;48.768;18.608;2023-07-28T00:16:58;15.70;99.90
11925;DHT22;6022;48.768;18.608;2023-07-28T00:19:25;15.80;99.90
11925;DHT22;6022;48.768;18.608;2023-07-28T00:21:52;15.90;99.90
11925;DHT22;6022;48.768;18.608;2023-07-28T00:24:20;16.10;99.90
11925;DHT22;6022;48.768;18.608;2023-07-28T00:26:47;16.10;99.90
11925;DHT22;6022;48.768;18.608;2023-07-28T00:29:14;16.10;99.90
11925;DHT22;6022;48.768;18.608;2023-07-28T00:31:41;16.20;99.90
11925;DHT22;6022;48.768;18.608;2023-07-28T00:34:08;16.40;99.90
11925;DHT22;6022;48.768;18.608;2023-07-28T00:36:35;16.30;99.90
11925;DHT22;6022;48.768;18.608;2023-07-28T00:39:03;15.80;99.90
11925;DHT22;6022;48.768;18.608;2023-07-28T00:41:30;16.00;99.90
11925;DHT22;6022;48.768;18.608;2023-07-28T00:43:57;16.50;99.90
11925;DHT22;6022;48.768;18.608;2023-07-28T00:46:24;16.10;99.90
11925;DHT22;6022;48.768;18.608;2023-07-28T00:48:52;16.40;99.90
11925;DHT22;6022;48.768;18.608;2023-07-28T00:51:21;16.10;99.90
11925;DHT22;6022;48.768;18.608;2023-07-28T00:53:48;16.40;99.90
11925;DHT22;6022;48.768;18.608;2023-07-28T00:56:15;16.10;99.90
11925;DHT22;6022;48.768;18.608;2023-07-28T00:58:43;16.00;99.90
11925;DHT22;6022;48.768;18.608;2023-07-28T01:01:10;16.10;99.90
11925;DHT22;6022;48.768;18.608;2023-07-28T01:03:37;16.20;99.90
11925;DHT22;6022;48.768;18.608;2023-07-28T01:09:03;16.20;99.90
11925;DHT22;6022;48.768;18.608;2023-07-28T01:11:32;16.30;99.90
11925;DHT22;6022;48.768;18.608;2023-07-28T01:14:00;16.20;99.90
11925;DHT22;6022;48.768;18.608;2023-07-28T01:16:27;16.20;99.90
11925;DHT22;6022;48.768;18.608;2023-07-28T01:18:54;16.60;99.90
11925;DHT22;6022;48.768;18.608;2023-07-28T01:21:26;16.30;99.90
11925;DHT22;6022;48.768;18.608;2023-07-28T01:24:37;16.10;99.90
11925;DHT22;6022;48.768;18.608;2023-07-28T01:27:17;16.20;99.90
11925;DHT22;6022;48.768;18.608;2023-07-28T01:29:45;16.10;99.90
11925;DHT22;6022;48.768;18.608;2023-07-28T01:32:14;15.90;99.90
11925;DHT22;6022;48.768;18.608;2023-07-28T01:34:41;16.00;99.90
11925;DHT22;6022;48.768;18.608;2023-07-28T01:37:08;16.10;99.90
11925;DHT22;6022;48.768;18.608;2023-07-28T01:39:35;15.80;99.90
11925;DHT22;6022;48.768;18.608;2023-07-28T01:42:02;15.90;99.90
11925;DHT22;6022;48.768;18.608;2023-07-28T01:44:30;15.90;99.90
11925;DHT22;6022;48.768;18.608;2023-07-28T01:46:57;15.90;99.90
11925;DHT22;6022;48.768;18.608;2023-07-28T01:49:24;15.90;99.90
11925;DHT22;6022;48.768;18.608;2023-07-28T01:51:51;16.00;99.90
11925;DHT22;6022;48.768;18.608;2023-07-28T01:54:18;16.30;99.90
11925;DHT22;6022;48.768;18.608;2023-07-28T01:56:45;16.40;99.90
11925;DHT22;6022;48.768;18.608;2023-07-28T01:59:12;16.10;99.90
11925;DHT22;6022;48.768;18.608;2023-07-28T02:01:40;16.20;99.90
11925;DHT22;6022;48.768;18.608;2023-07-28T02:04:07;16.30;99.90
11925;DHT22;6022;48.768;18.608;2023-07-28T02:06:34;16.40;99.90
11925;DHT22;6022;48.768;18.608;2023-07-28T02:09:02;16.00;99.90
11925;DHT22;6022;48.768;18.608;2023-07-28T02:11:29;15.90;99.90
11925;DHT22;6022;48.768;18.608;2023-07-28T02:13:56;15.60;99.90
11925;DHT22;6022;48.768;18.608;2023-07-28T02:16:25;15.80;99.90
11925;DHT22;6022;48.768;18.608;2023-07-28T02:18:54;15.90;99.90
11925;DHT22;6022;48.768;18.608;2023-07-28T02:21:21;15.90;99.90
11925;DHT22;6022;48.768;18.608;2023-07-28T02:23:48;16.00;99.90
11925;DHT22;6022;48.768;18.608;2023-07-28T02:26:16;15.90;99.90
11925;DHT22;6022;48.768;18.608;2023-07-28T02:28:43;16.00;99.90
11925;DHT22;6022;48.768;18.608;2023-07-28T02:31:10;16.20;99.90
11925;DHT22;6022;48.768;18.608;2023-07-28T02:33:37;16.10;99.90
11925;DHT22;6022;48.768;18.608;2023-07-28T02:36:04;16.10;99.90
11925;DHT22;6022;48.768;18.608;2023-07-28T02:38:32;16.10;99.90
11925;DHT22;6022;48.768;18.608;2023-07-28T02:40:59;16.10;99.90
11925;DHT22;6022;48.768;18.608;2023-07-28T02:43:26;16.00;99.90
11925;DHT22;6022;48.768;18.608;2023-07-28T02:45:57;16.00;99.90
11925;DHT22;6022;48.768;18.608;2023-07-28T02:48:25;16.40;99.90
11925;DHT22;6022;48.768;18.608;2023-07-28T02:50:52;16.10;99.90
11925;DHT22;6022;48.768;18.608;2023-07-28T02:53:19;16.00;99.90
11925;DHT22;6022;48.768;18.608;2023-07-28T02:55:47;15.90;99.90
11925;DHT22;6022;48.768;18.608;2023-07-28T02:58:15;15.90;99.90
11925;DHT22;6022;48.768;18.608;2023-07-28T03:00:43;16.00;99.90
11925;DHT22;6022;48.768;18.608;2023-07-28T03:03:11;15.80;99.90
11925;DHT22;6022;48.768;18.608;2023-07-28T03:05:39;15.80;99.90
11925;DHT22;6022;48.768;18.608;2023-07-28T03:08:07;15.90;99.90
11925;DHT22;6022;48.768;18.608;2023-07-28T03:10:34;16.00;99.90
11925;DHT22;6022;48.768;18.608;2023-07-28T03:13:01;16.00;99.90
11925;DHT22;6022;48.768;18.608;2023-07-28T03:15:28;15.90;99.90
11925;DHT22;6022;48.768;18.608;2023-07-28T03:17:55;16.00;99.90
11925;DHT22;6022;48.768;18.608;2023-07-28T03:20:22;16.00;99.90
11925;DHT22;6022;48.768;18.608;2023-07-28T03:22:49;16.00;99.90
11925;DHT22;6022;48.768;18.608;2023-07-28T03:25:16;16.40;99.90
11925;DHT22;6022;48.768;18.608;2023-07-28T03:27:44;16.10;99.90
11925;DHT22;6022;48.768;18.608;2023-07-28T03:30:11;16.20;99.90
11925;DHT22;6022;48.768;18.608;2023-07-28T03:32:38;16.10;99.90
11925;DHT22;6022;48.768;18.608;2023-07-28T03:35:06;16.10;99.90
11925;DHT22;6022;48.768;18.608;2023-07-28T03:37:34;16.50;99.90
11925;DHT22;6022;48.768;18.608;2023-07-28T03:40:01;16.40;99.90
11925;DHT22;6022;48.768;18.608;2023-07-28T03:42:28;16.40;99.90
11925;DHT22;6022;48.768;18.608;2023-07-28T03:44:55;16.10;99.90
11925;DHT22;6022;48.768;18.608;2023-07-28T03:47:23;16.10;99.90
11925;DHT22;6022;48.768;18.608;2023-07-28T03:49:50;16.30;99.90
11925;DHT22;6022;48.768;18.608;2023-07-28T03:52:17;16.00;99.90
11925;DHT22;6022;48.768;18.608;2023-07-28T03:54:44;16.50;99.90
11925;DHT22;6022;48.768;18.608;2023-07-28T03:57:12;16.20;99.90
11925;DHT22;6022;48.768;18.608;2023-07-28T03:59:39;16.50;99.90
11925;DHT22;6022;48.768;18.608;2023-07-28T04:02:06;16.40;99.90
11925;DHT22;6022;48.768;18.608;2023-07-28T04:04:34;16.80;99.90
11925;DHT22;6022;48.768;18.608;2023-07-28T04:07:02;16.20;99.90
11925;DHT22;6022;48.768;18.608;2023-07-28T04:09:30;16.50;99.90
11925;DHT22;6022;48.768;18.608;2023-07-28T04:11:57;16.30;99.90
11925;DHT22;6022;48.768;18.608;2023-07-28T04:14:24;16.50;99.90
11925;DHT22;6022;48.768;18.608;2023-07-28T04:16:51;16.10;99.90
11925;DHT22;6022;48.768;18.608;2023-07-28T04:19:18;16.10;99.90
11925;DHT22;6022;48.768;18.608;2023-07-28T04:21:49;16.00;99.90
11925;DHT22;6022;48.768;18.608;2023-07-28T04:24:16;16.20;99.90
11925;DHT22;6022;48.768;18.608;2023-07-28T04:26:43;16.00;99.90
11925;DHT22;6022;48.768;18.608;2023-07-28T04:29:10;16.30;99.90
11925;DHT22;6022;48.768;18.608;2023-07-28T04:31:37;16.20;99.90
11925;DHT22;6022;48.768;18.608;2023-07-28T04:34:04;16.20;99.90
11925;DHT22;6022;48.768;18.608;2023-07-28T04:36:32;16.30;99.90
11925;DHT22;6022;48.768;18.608;2023-07-28T04:38:59;16.20;99.90
11925;DHT22;6022;48.768;18.608;2023-07-28T04:41:26;16.40;99.90
11925;DHT22;6022;48.768;18.608;2023-07-28T04:43:54;16.40;99.90
11925;DHT22;6022;48.768;18.608;2023-07-28T04:46:21;16.70;99.90
11925;DHT22;6022;48.768;18.608;2023-07-28T04:48:53;16.50;99.90
11925;DHT22;6022;48.768;18.608;2023-07-28T04:51:27;16.60;99.90
11925;DHT22;6022;48.768;18.608;2023-07-28T04:53:54;16.70;99.90
11925;DHT22;6022;48.768;18.608;2023-07-28T04:56:22;16.90;99.90
11925;DHT22;6022;48.768;18.608;2023-07-28T04:58:49;16.80;99.90
11925;DHT22;6022;48.768;18.608;2023-07-28T05:01:16;16.90;99.90
11925;DHT22;6022;48.768;18.608;2023-07-28T05:03:43;17.00;99.90
11925;DHT22;6022;48.768;18.608;2023-07-28T05:06:11;16.60;99.90
11925;DHT22;6022;48.768;18.608;2023-07-28T05:08:41;17.10;99.90
11925;DHT22;6022;48.768;18.608;2023-07-28T05:11:08;17.00;99.90
11925;DHT22;6022;48.768;18.608;2023-07-28T05:13:35;16.90;99.90
11925;DHT22;6022;48.768;18.608;2023-07-28T05:16:06;17.10;99.90
11925;DHT22;6022;48.768;18.608;2023-07-28T05:18:33;17.10;99.90
11925;DHT22;6022;48.768;18.608;2023-07-28T05:21:02;17.40;99.90
11925;DHT22;6022;48.768;18.608;2023-07-28T05:23:34;17.00;99.90
11925;DHT22;6022;48.768;18.608;2023-07-28T05:26:01;16.90;99.90
11925;DHT22;6022;48.768;18.608;2023-07-28T05:28:34;17.00;99.90
11925;DHT22;6022;48.768;18.608;2023-07-28T05:31:06;16.90;99.90
11925;DHT22;6022;48.768;18.608;2023-07-28T05:33:39;17.10;99.90
11925;DHT22;6022;48.768;18.608;2023-07-28T05:36:06;17.10;99.90
11925;DHT22;6022;48.768;18.608;2023-07-28T05:38:34;17.30;99.90
11925;DHT22;6022;48.768;18.608;2023-07-28T05:41:02;16.80;99.90
11925;DHT22;6022;48.768;18.608;2023-07-28T05:43:31;17.00;99.90
11925;DHT22;6022;48.768;18.608;2023-07-28T05:46:02;17.00;99.90
11925;DHT22;6022;48.768;18.608;2023-07-28T05:48:30;16.90;99.90
11925;DHT22;6022;48.768;18.608;2023-07-28T05:50:58;17.20;99.90
11925;DHT22;6022;48.768;18.608;2023-07-28T05:53:25;16.70;99.90
11925;DHT22;6022;48.768;18.608;2023-07-28T05:55:56;17.00;99.90
11925;DHT22;6022;48.768;18.608;2023-07-28T05:58:24;17.30;99.90
11925;DHT22;6022;48.768;18.608;2023-07-28T06:00:51;16.80;99.90
11925;DHT22;6022;48.768;18.608;2023-07-28T06:03:20;17.30;99.90
11925;DHT22;6022;48.768;18.608;2023-07-28T06:05:47;17.50;99.90
11925;DHT22;6022;48.768;18.608;2023-07-28T06:08:14;17.00;99.90
11925;DHT22;6022;48.768;18.608;2023-07-28T06:10:41;16.90;99.90
11925;DHT22;6022;48.768;18.608;2023-07-28T06:13:08;17.40;99.90
11925;DHT22;6022;48.768;18.608;2023-07-28T06:15:39;17.00;99.90
11925;DHT22;6022;48.768;18.608;2023-07-28T06:18:07;17.40;99.90
11925;DHT22;6022;48.768;18.608;2023-07-28T06:20:35;17.50;99.90
11925;DHT22;6022;48.768;18.608;2023-07-28T06:23:08;17.10;99.90
11925;DHT22;6022;48.768;18.608;2023-07-28T06:25:35;17.50;99.90
11925;DHT22;6022;48.768;18.608;2023-07-28T06:28:04;17.30;99.90
11925;DHT22;6022;48.768;18.608;2023-07-28T06:30:32;17.10;99.90
11925;DHT22;6022;48.768;18.608;2023-07-28T06:32:59;17.00;99.90
11925;DHT22;6022;48.768;18.608;2023-07-28T06:35:26;17.20;99.90
11925;DHT22;6022;48.768;18.608;2023-07-28T06:37:56;17.30;99.90
11925;DHT22;6022;48.768;18.608;2023-07-28T06:40:24;17.90;99.90
11925;DHT22;6022;48.768;18.608;2023-07-28T06:42:51;17.20;99.90
11925;DHT22;6022;48.768;18.608;2023-07-28T06:45:19;17.60;99.90
11925;DHT22;6022;48.768;18.608;2023-07-28T06:47:47;18.00;99.90
11925;DHT22;6022;48.768;18.608;2023-07-28T06:50:15;17.20;99.90
11925;DHT22;6022;48.768;18.608;2023-07-28T06:52:42;18.20;99.90
11925;DHT22;6022;48.768;18.608;2023-07-28T06:55:10;17.60;99.90
11925;DHT22;6022;48.768;18.608;2023-07-28T06:57:38;18.00;99.90
11925;DHT22;6022;48.768;18.608;2023-07-28T07:00:07;17.90;99.90
11925;DHT22;6022;48.768;18.608;2023-07-28T07:02:37;18.10;99.90
11925;DHT22;6022;48.768;18.608;2023-07-28T07:05:05;18.00;99.90
11925;DHT22;6022;48.768;18.608;2023-07-28T07:07:33;18.20;99.90
11925;DHT22;6022;48.768;18.608;2023-07-28T07:10:00;18.30;99.90
11925;DHT22;6022;48.768;18.608;2023-07-28T07:12:28;18.20;99.90
11925;DHT22;6022;48.768;18.608;2023-07-28T07:14:55;18.50;99.90
11925;DHT22;6022;48.768;18.608;2023-07-28T07:17:22;18.60;99.90
11925;DHT22;6022;48.768;18.608;2023-07-28T07:19:49;18.30;99.90
11925;DHT22;6022;48.768;18.608;2023-07-28T07:22:16;19.20;99.90
11925;DHT22;6022;48.768;18.608;2023-07-28T07:24:44;18.90;99.90
11925;DHT22;6022;48.768;18.608;2023-07-28T07:27:11;19.50;99.90
11925;DHT22;6022;48.768;18.608;2023-07-28T07:29:39;20.00;99.90
11925;DHT22;6022;48.768;18.608;2023-07-28T07:32:07;20.50;99.90
11925;DHT22;6022;48.768;18.608;2023-07-28T07:34:36;20.30;99.90
11925;DHT22;6022;48.768;18.608;2023-07-28T07:37:05;20.20;99.90
11925;DHT22;6022;48.768;18.608;2023-07-28T07:39:32;20.60;99.90
11925;DHT22;6022;48.768;18.608;2023-07-28T07:42:00;20.20;99.90
11925;DHT22;6022;48.768;18.608;2023-07-28T07:44:28;19.80;99.90
11925;DHT22;6022;48.768;18.608;2023-07-28T07:46:55;19.70;99.90
11925;DHT22;6022;48.768;18.608;2023-07-28T07:49:23;19.40;99.90
11925;DHT22;6022;48.768;18.608;2023-07-28T07:51:50;19.40;99.90
11925;DHT22;6022;48.768;18.608;2023-07-28T07:54:17;19.30;99.90
11925;DHT22;6022;48.768;18.608;2023-07-28T07:56:45;19.20;99.90
11925;DHT22;6022;48.768;18.608;2023-07-28T07:59:13;19.20;99.90
11925;DHT22;6022;48.768;18.608;2023-07-28T08:01:40;19.00;99.90
11925;DHT22;6022;48.768;18.608;2023-07-28T08:04:08;19.00;99.90
11925;DHT22;6022;48.768;18.608;2023-07-28T08:06:35;19.00;99.90
11925;DHT22;6022;48.768;18.608;2023-07-28T08:09:03;19.10;99.90
11925;DHT22;6022;48.768;18.608;2023-07-28T08:11:30;18.90;99.90
11925;DHT22;6022;48.768;18.608;2023-07-28T08:13:57;19.00;99.90
11925;DHT22;6022;48.768;18.608;2023-07-28T08:16:24;19.00;99.90
11925;DHT22;6022;48.768;18.608;2023-07-28T08:18:52;19.10;99.90
11925;DHT22;6022;48.768;18.608;2023-07-28T08:21:19;19.00;99.90
11925;DHT22;6022;48.768;18.608;2023-07-28T08:23:46;19.00;99.90
11925;DHT22;6022;48.768;18.608;2023-07-28T08:26:14;19.20;99.90
11925;DHT22;6022;48.768;18.608;2023-07-28T08:28:41;19.40;99.90
11925;DHT22;6022;48.768;18.608;2023-07-28T08:31:11;19.40;99.90
11925;DHT22;6022;48.768;18.608;2023-07-28T08:33:39;19.40;99.90
11925;DHT22;6022;48.768;18.608;2023-07-28T08:36:06;19.70;99.90
11925;DHT22;6022;48.768;18.608;2023-07-28T08:38:34;19.90;99.90
11925;DHT22;6022;48.768;18.608;2023-07-28T08:41:01;19.80;99.90
11925;DHT22;6022;48.768;18.608;2023-07-28T08:43:28;19.90;99.90
11925;DHT22;6022;48.768;18.608;2023-07-28T08:45:55;19.80;99.90
11925;DHT22;6022;48.768;18.608;2023-07-28T08:48:26;20.00;99.90
11925;DHT22;6022;48.768;18.608;2023-07-28T08:50:54;20.20;99.90
11925;DHT22;6022;48.768;18.608;2023-07-28T08:53:21;20.60;99.90
11925;DHT22;6022;48.768;18.608;2023-07-28T08:55:49;20.90;99.90
11925;DHT22;6022;48.768;18.608;2023-07-28T08:58:21;20.70;99.90
11925;DHT22;6022;48.768;18.608;2023-07-28T09:00:52;20.60;99.90
11925;DHT22;6022;48.768;18.608;2023-07-28T09:03:23;20.60;99.90
11925;DHT22;6022;48.768;18.608;2023-07-28T09:05:59;21.00;99.90
11925;DHT22;6022;48.768;18.608;2023-07-28T09:08:33;21.00;99.90
11925;DHT22;6022;48.768;18.608;2023-07-28T09:11:05;20.70;99.90
11925;DHT22;6022;48.768;18.608;2023-07-28T09:13:39;21.20;99.90
11925;DHT22;6022;48.768;18.608;2023-07-28T09:16:26;21.50;99.90
11925;DHT22;6022;48.768;18.608;2023-07-28T09:19:26;21.70;99.90
11925;DHT22;6022;48.768;18.608;2023-07-28T09:22:08;21.60;99.90
11925;DHT22;6022;48.768;18.608;2023-07-28T09:24:40;21.90;99.90
11925;DHT22;6022;48.768;18.608;2023-07-28T09:27:20;21.60;99.90
11925;DHT22;6022;48.768;18.608;2023-07-28T09:29:51;21.70;99.90
11925;DHT22;6022;48.768;18.608;2023-07-28T09:32:30;21.80;99.90
11925;DHT22;6022;48.768;18.608;2023-07-28T09:35:11;21.90;99.90
11925;DHT22;6022;48.768;18.608;2023-07-28T09:37:42;21.50;99.90
11925;DHT22;6022;48.768;18.608;2023-07-28T09:40:22;21.50;99.90
11925;DHT22;6022;48.768;18.608;2023-07-28T09:42:53;20.90;99.90
11925;DHT22;6022;48.768;18.608;2023-07-28T09:45:22;20.60;99.90
11925;DHT22;6022;48.768;18.608;2023-07-28T09:48:05;20.90;99.90
11925;DHT22;6022;48.768;18.608;2023-07-28T09:50:38;21.50;99.90
11925;DHT22;6022;48.768;18.608;2023-07-28T09:53:09;22.20;99.90
11925;DHT22;6022;48.768;18.608;2023-07-28T09:55:39;22.70;99.90
11925;DHT22;6022;48.768;18.608;2023-07-28T09:58:10;23.40;99.90
11925;DHT22;6022;48.768;18.608;2023-07-28T10:00:41;24.30;99.90
11925;DHT22;6022;48.768;18.608;2023-07-28T10:03:11;23.90;99.90
11925;DHT22;6022;48.768;18.608;2023-07-28T10:05:40;23.60;99.90
11925;DHT22;6022;48.768;18.608;2023-07-28T10:08:09;23.70;99.90
11925;DHT22;6022;48.768;18.608;2023-07-28T10:10:37;23.90;99.90
11925;DHT22;6022;48.768;18.608;2023-07-28T10:13:20;24.00;99.90
11925;DHT22;6022;48.768;18.608;2023-07-28T10:15:49;24.20;99.90
11925;DHT22;6022;48.768;18.608;2023-07-28T10:18:20;25.10;99.90
11925;DHT22;6022;48.768;18.608;2023-07-28T10:20:50;25.50;99.90
11925;DHT22;6022;48.768;18.608;2023-07-28T10:23:24;26.10;99.90
11925;DHT22;6022;48.768;18.608;2023-07-28T10:25:59;25.40;99.90
11925;DHT22;6022;48.768;18.608;2023-07-28T10:28:38;25.60;99.90
11925;DHT22;6022;48.768;18.608;2023-07-28T10:31:10;25.80;99.90
11925;DHT22;6022;48.768;18.608;2023-07-28T10:33:40;25.70;99.90
11925;DHT22;6022;48.768;18.608;2023-07-28T10:39:00;25.10;99.90
11925;DHT22;6022;48.768;18.608;2023-07-28T10:41:38;25.20;99.90
11925;DHT22;6022;48.768;18.608;2023-07-28T10:44:07;25.10;99.90
11925;DHT22;6022;48.768;18.608;2023-07-28T10:46:35;25.40;99.90
11925;DHT22;6022;48.768;18.608;2023-07-28T10:49:05;25.40;99.90
11925;DHT22;6022;48.768;18.608;2023-07-28T10:51:32;25.80;99.90
11925;DHT22;6022;48.768;18.608;2023-07-28T10:54:03;25.60;99.90
11925;DHT22;6022;48.768;18.608;2023-07-28T10:56:30;25.60;99.90
11925;DHT22;6022;48.768;18.608;2023-07-28T10:59:03;25.50;99.90
11925;DHT22;6022;48.768;18.608;2023-07-28T11:01:36;25.40;99.90
11925;DHT22;6022;48.768;18.608;2023-07-28T11:04:19;25.30;99.90
11925;DHT22;6022;48.768;18.608;2023-07-28T11:06:48;25.10;99.90
11925;DHT22;6022;48.768;18.608;2023-07-28T11:09:19;25.20;99.90
11925;DHT22;6022;48.768;18.608;2023-07-28T11:11:50;24.60;99.90
11925;DHT22;6022;48.768;18.608;2023-07-28T11:14:18;25.00;99.90
11925;DHT22;6022;48.768;18.608;2023-07-28T11:16:46;24.70;99.90
11925;DHT22;6022;48.768;18.608;2023-07-28T11:19:15;25.30;99.90
11925;DHT22;6022;48.768;18.608;2023-07-28T11:21:45;25.40;99.90
11925;DHT22;6022;48.768;18.608;2023-07-28T11:24:19;25.50;99.90
11925;DHT22;6022;48.768;18.608;2023-07-28T11:26:48;26.20;99.90
11925;DHT22;6022;48.768;18.608;2023-07-28T11:29:16;25.80;99.90
11925;DHT22;6022;48.768;18.608;2023-07-28T11:31:46;26.10;99.90
11925;DHT22;6022;48.768;18.608;2023-07-28T11:34:18;27.10;99.90
11925;DHT22;6022;48.768;18.608;2023-07-28T11:36:45;27.50;99.90
11925;DHT22;6022;48.768;18.608;2023-07-28T11:39:13;27.70;99.90
11925;DHT22;6022;48.768;18.608;2023-07-28T11:41:42;27.80;99.90
11925;DHT22;6022;48.768;18.608;2023-07-28T11:44:13;27.80;99.90
11925;DHT22;6022;48.768;18.608;2023-07-28T11:46:42;27.50;99.90
11925;DHT22;6022;48.768;18.608;2023-07-28T11:49:17;27.00;99.90
11925;DHT22;6022;48.768;18.608;2023-07-28T11:51:54;27.00;99.90
11925;DHT22;6022;48.768;18.608;2023-07-28T11:54:29;27.20;99.90
11925;DHT22;6022;48.768;18.608;2023-07-28T11:57:01;27.60;99.90
11925;DHT22;6022;48.768;18.608;2023-07-28T11:59:28;27.90;99.90
11925;DHT22;6022;48.768;18.608;2023-07-28T12:01:58;27.00;99.90
11925;DHT22;6022;48.768;18.608;2023-07-28T12:04:40;26.90;99.90
11925;DHT22;6022;48.768;18.608;2023-07-28T12:12:17;27.20;99.90
11925;DHT22;6022;48.768;18.608;2023-07-28T12:14:49;27.40;99.90
11925;DHT22;6022;48.768;18.608;2023-07-28T12:17:38;24.50;99.90
11925;DHT22;6022;48.768;18.608;2023-07-28T12:20:12;27.30;99.90
11925;DHT22;6022;48.768;18.608;2023-07-28T12:22:44;27.40;99.90
11925;DHT22;6022;48.768;18.608;2023-07-28T12:25:15;26.80;99.90
11925;DHT22;6022;48.768;18.608;2023-07-28T12:27:45;27.40;99.90
11925;DHT22;6022;48.768;18.608;2023-07-28T12:30:13;27.20;99.90
11925;DHT22;6022;48.768;18.608;2023-07-28T12:32:43;26.60;99.90
11925;DHT22;6022;48.768;18.608;2023-07-28T12:35:16;26.60;99.90
11925;DHT22;6022;48.768;18.608;2023-07-28T12:37:51;26.40;99.90
11925;DHT22;6022;48.768;18.608;2023-07-28T12:40:21;26.60;99.90
11925;DHT22;6022;48.768;18.608;2023-07-28T12:42:59;26.20;99.90
11925;DHT22;6022;48.768;18.608;2023-07-28T12:45:32;26.30;99.90
11925;DHT22;6022;48.768;18.608;2023-07-28T12:48:02;26.00;99.90
11925;DHT22;6022;48.768;18.608;2023-07-28T12:50:32;25.90;99.90
11925;DHT22;6022;48.768;18.608;2023-07-28T12:53:02;26.30;99.90
11925;DHT22;6022;48.768;18.608;2023-07-28T12:55:41;26.20;99.90
11925;DHT22;6022;48.768;18.608;2023-07-28T12:58:30;26.50;99.90
11925;DHT22;6022;48.768;18.608;2023-07-28T13:01:01;26.40;99.90
11925;DHT22;6022;48.768;18.608;2023-07-28T13:03:38;26.30;99.90
11925;DHT22;6022;48.768;18.608;2023-07-28T13:06:11;26.40;99.90
11925;DHT22;6022;48.768;18.608;2023-07-28T13:08:38;26.10;99.90
11925;DHT22;6022;48.768;18.608;2023-07-28T13:11:08;26.10;99.90
11925;DHT22;6022;48.768;18.608;2023-07-28T13:13:45;26.20;99.90
11925;DHT22;6022;48.768;18.608;2023-07-28T13:16:13;26.30;99.90
11925;DHT22;6022;48.768;18.608;2023-07-28T13:18:43;26.30;99.90
11925;DHT22;6022;48.768;18.608;2023-07-28T13:21:11;26.20;99.90
11925;DHT22;6022;48.768;18.608;2023-07-28T13:23:40;26.10;99.90
11925;DHT22;6022;48.768;18.608;2023-07-28T13:26:09;26.10;99.90
11925;DHT22;6022;48.768;18.608;2023-07-28T13:28:39;25.60;99.90
11925;DHT22;6022;48.768;18.608;2023-07-28T13:31:18;25.90;99.90
11925;DHT22;6022;48.768;18.608;2023-07-28T13:33:58;25.80;99.90
11925;DHT22;6022;48.768;18.608;2023-07-28T13:36:25;25.30;99.90
11925;DHT22;6022;48.768;18.608;2023-07-28T13:38:55;25.70;99.90
11925;DHT22;6022;48.768;18.608;2023-07-28T13:41:29;25.00;99.90
11925;DHT22;6022;48.768;18.608;2023-07-28T13:43:59;24.90;99.90
11925;DHT22;6022;48.768;18.608;2023-07-28T13:46:32;24.90;99.90
11925;DHT22;6022;48.768;18.608;2023-07-28T13:49:48;24.50;99.90
11925;DHT22;6022;48.768;18.608;2023-07-28T13:52:55;24.60;99.90
11925;DHT22;6022;48.768;18.608;2023-07-28T13:55:23;24.80;99.90
11925;DHT22;6022;48.768;18.608;2023-07-28T13:58:06;24.80;99.90
11925;DHT22;6022;48.768;18.608;2023-07-28T14:00:35;24.70;99.90
11925;DHT22;6022;48.768;18.608;2023-07-28T14:03:03;24.80;99.90
11925;DHT22;6022;48.768;18.608;2023-07-28T14:05:31;24.40;99.90
11925;DHT22;6022;48.768;18.608;2023-07-28T14:07:59;24.90;99.90
11925;DHT22;6022;48.768;18.608;2023-07-28T14:10:46;24.80;99.90
11925;DHT22;6022;48.768;18.608;2023-07-28T14:13:13;25.00;99.90
11925;DHT22;6022;48.768;18.608;2023-07-28T14:15:41;24.50;99.90
11925;DHT22;6022;48.768;18.608;2023-07-28T14:18:09;23.90;99.90
11925;DHT22;6022;48.768;18.608;2023-07-28T14:20:37;24.60;99.90
11925;DHT22;6022;48.768;18.608;2023-07-28T14:23:23;24.70;99.90
11925;DHT22;6022;48.768;18.608;2023-07-28T14:25:52;24.10;99.90
11925;DHT22;6022;48.768;18.608;2023-07-28T14:28:21;24.20;99.90
11925;DHT22;6022;48.768;18.608;2023-07-28T14:30:50;24.80;99.90
11925;DHT22;6022;48.768;18.608;2023-07-28T14:33:18;24.20;99.90
11925;DHT22;6022;48.768;18.608;2023-07-28T14:35:47;24.80;99.90
11925;DHT22;6022;48.768;18.608;2023-07-28T14:38:16;24.80;99.90
11925;DHT22;6022;48.768;18.608;2023-07-28T14:40:44;24.60;99.90
11925;DHT22;6022;48.768;18.608;2023-07-28T14:43:16;24.80;99.90
11925;DHT22;6022;48.768;18.608;2023-07-28T14:45:43;24.60;99.90
11925;DHT22;6022;48.768;18.608;2023-07-28T14:48:11;24.50;99.90
11925;DHT22;6022;48.768;18.608;2023-07-28T14:50:38;24.60;99.90
11925;DHT22;6022;48.768;18.608;2023-07-28T14:53:36;24.40;99.90
11925;DHT22;6022;48.768;18.608;2023-07-28T14:56:06;24.50;99.90
11925;DHT22;6022;48.768;18.608;2023-07-28T14:58:41;25.00;99.90
11925;DHT22;6022;48.768;18.608;2023-07-28T15:06:13;24.40;99.90
11925;DHT22;6022;48.768;18.608;2023-07-28T15:08:40;24.70;99.90
11925;DHT22;6022;48.768;18.608;2023-07-28T15:13:36;24.50;99.90
11925;DHT22;6022;48.768;18.608;2023-07-28T15:16:03;25.20;99.90
11925;DHT22;6022;48.768;18.608;2023-07-28T15:18:31;24.40;99.90
11925;DHT22;6022;48.768;18.608;2023-07-28T15:20:58;24.20;99.90
11925;DHT22;6022;48.768;18.608;2023-07-28T15:23:26;24.20;99.90
11925;DHT22;6022;48.768;18.608;2023-07-28T15:25:54;24.40;99.90
11925;DHT22;6022;48.768;18.608;2023-07-28T15:28:24;24.50;99.90
11925;DHT22;6022;48.768;18.608;2023-07-28T15:30:52;24.30;99.90
11925;DHT22;6022;48.768;18.608;2023-07-28T15:33:22;24.20;99.90
11925;DHT22;6022;48.768;18.608;2023-07-28T15:35:56;24.00;99.90
11925;DHT22;6022;48.768;18.608;2023-07-28T15:40:51;24.20;99.90
11925;DHT22;6022;48.768;18.608;2023-07-28T15:45:52;24.80;99.90
11925;DHT22;6022;48.768;18.608;2023-07-28T15:48:22;24.20;99.90
11925;DHT22;6022;48.768;18.608;2023-07-28T16:00:41;24.20;99.90
11925;DHT22;6022;48.768;18.608;2023-07-28T16:08:08;24.30;99.90
11925;DHT22;6022;48.768;18.608;2023-07-28T16:15:37;24.90;99.90
11925;DHT22;6022;48.768;18.608;2023-07-28T16:25:27;23.90;99.90
11925;DHT22;6022;48.768;18.608;2023-07-28T16:27:54;23.60;99.90
11925;DHT22;6022;48.768;18.608;2023-07-28T16:30:21;23.70;99.90
11925;DHT22;6022;48.768;18.608;2023-07-28T16:35:16;24.10;99.90
11925;DHT22;6022;48.768;18.608;2023-07-28T16:40:10;23.30;99.90
11925;DHT22;6022;48.768;18.608;2023-07-28T16:42:40;23.60;99.90